createdAt,value
2018-07-25T07:14:00.875Z,100018.00
2018-07-25T07:16:28.429Z,100054.00
2018-07-25T07:18:55.983Z,100052.00
2018-07-25T07:21:23.544Z,100065.00
2018-07-25T07:23:51.359Z,100080.00
2018-07-25T07:26:18.900Z,100068.00
2018-07-25T07:28:46.454Z,100090.00
2018-07-25T07:31:14.010Z,100085.00
2018-07-25T07:33:41.570Z,100088.00
2018-07-25T07:36:09.143Z,100087.00
2018-07-25T07:38:36.714Z,100067.00
2018-07-25T07:41:04.274Z,100110.00
2018-07-25T07:43:31.842Z,100122.00
2018-07-25T07:45:59.388Z,100127.00
2018-07-25T07:48:26.977Z,100132.00
2018-07-25T07:50:54.568Z,100135.00
2018-07-25T07:53:22.117Z,100137.00
2018-07-25T07:55:49.648Z,100138.00
2018-07-25T07:58:17.342Z,100129.00
2018-07-25T08:00:44.877Z,100132.00
2018-07-25T08:03:12.435Z,100156.00
2018-07-25T08:05:40.023Z,100147.00
2018-07-25T08:08:07.581Z,100140.00
2018-07-25T08:10:35.152Z,100143.00
2018-07-25T08:13:02.712Z,100147.00
2018-07-25T08:15:30.278Z,100137.00
2018-07-25T08:17:57.895Z,100155.00
2018-07-25T08:20:25.409Z,100154.00
2018-07-25T08:22:52.970Z,100139.00
2018-07-25T08:25:20.528Z,100150.00
2018-07-25T08:27:48.052Z,100146.00
2018-07-25T08:30:15.620Z,100135.00
2018-07-25T08:32:43.174Z,100147.00
2018-07-25T08:35:10.725Z,100154.00
2018-07-25T08:37:38.277Z,100155.00
2018-07-25T08:40:05.938Z,100145.00
2018-07-25T08:42:33.544Z,100153.00
2018-07-25T08:45:01.112Z,100143.00
2018-07-25T08:47:28.666Z,100144.00
2018-07-25T08:49:56.211Z,100150.00
2018-07-25T08:52:23.765Z,100144.00
2018-07-25T08:54:51.320Z,100142.00
2018-07-25T08:57:19.072Z,100147.00
2018-07-25T08:59:46.619Z,100130.00
2018-07-25T09:02:14.165Z,100133.00
2018-07-25T09:04:41.760Z,100136.00
2018-07-25T09:07:09.307Z,100138.00
2018-07-25T09:09:36.877Z,100138.00
2018-07-25T09:12:04.491Z,100136.00
2018-07-25T09:14:32.080Z,100146.00
2018-07-25T09:16:59.658Z,100141.00
2018-07-25T09:19:27.184Z,100146.00
2018-07-25T09:21:54.759Z,100139.00
2018-07-25T09:24:22.308Z,100143.00
2018-07-25T09:26:49.865Z,100139.00
2018-07-25T09:29:17.418Z,100165.00
2018-07-25T09:31:44.968Z,100150.00
2018-07-25T09:37:31.117Z,100151.00
2018-07-25T09:40:02.953Z,100134.00
2018-07-25T09:42:30.526Z,100154.00
2018-07-25T09:44:58.118Z,100159.00
2018-07-25T09:47:25.703Z,100151.00
2018-07-25T09:49:53.237Z,100150.00
2018-07-25T09:52:20.853Z,100141.00
2018-07-25T09:54:48.402Z,100117.00
2018-07-25T09:57:15.967Z,100118.00
2018-07-25T09:59:43.516Z,100117.00
2018-07-25T10:02:11.338Z,100126.00
2018-07-25T10:04:38.912Z,100127.00
2018-07-25T10:07:06.515Z,100149.00
2018-07-25T10:09:34.007Z,100140.00
2018-07-25T10:12:01.582Z,100124.00
2018-07-25T10:14:29.147Z,100124.00
2018-07-25T10:16:56.712Z,100125.00
2018-07-25T10:19:24.272Z,100122.00
2018-07-25T10:21:51.875Z,100116.00
2018-07-25T10:24:19.476Z,100115.00
2018-07-25T10:26:46.984Z,100127.00
2018-07-25T10:29:14.569Z,100132.00
2018-07-25T10:31:42.129Z,100114.00
2018-07-25T10:34:09.698Z,100109.00
2018-07-25T10:36:37.510Z,100111.00
2018-07-25T10:39:06.633Z,100113.00
2018-07-25T10:41:34.164Z,100117.00
2018-07-25T10:44:01.786Z,100120.00
2018-07-25T10:46:29.404Z,100117.00
2018-07-25T10:48:57.216Z,100110.00
2018-07-25T10:51:24.735Z,100116.00
2018-07-25T10:53:52.290Z,100105.00
2018-07-25T10:56:19.852Z,100108.00
2018-07-25T10:58:47.418Z,100112.00
2018-07-25T11:01:14.965Z,100113.00
2018-07-25T11:03:42.536Z,100105.00
2018-07-25T11:06:10.100Z,100106.00
2018-07-25T11:08:37.708Z,100101.00
2018-07-25T11:11:05.267Z,100103.00
2018-07-25T11:13:32.828Z,100114.00
2018-07-25T11:16:00.498Z,100112.00
2018-07-25T11:18:28.094Z,100096.00
2018-07-25T11:20:55.846Z,100085.00
2018-07-25T11:23:23.414Z,100084.00
2018-07-25T11:25:50.961Z,100078.00
2018-07-25T11:28:18.530Z,100086.00
2018-07-25T11:30:46.123Z,100084.00
2018-07-25T11:33:13.685Z,100085.00
2018-07-25T11:35:41.236Z,100076.00
2018-07-25T11:38:08.868Z,100069.00
2018-07-25T11:40:36.368Z,100080.00
2018-07-25T11:43:04.196Z,100064.00
2018-07-25T11:45:31.733Z,100081.00
2018-07-25T11:47:59.291Z,100085.00
2018-07-25T11:50:26.888Z,100064.00
2018-07-25T11:52:54.832Z,100064.00
2018-07-25T11:55:22.447Z,100075.00
2018-07-25T11:57:49.954Z,100065.00
2018-07-25T12:00:17.500Z,100065.00
2018-07-25T12:02:45.083Z,100067.00
2018-07-25T12:05:12.654Z,100085.00
2018-07-25T12:07:40.193Z,100073.00
2018-07-25T12:10:07.783Z,100069.00
2018-07-25T12:12:35.363Z,100064.00
2018-07-25T12:15:03.409Z,100063.00
2018-07-25T12:17:31.089Z,100059.00
2018-07-25T12:19:58.650Z,100051.00
2018-07-25T12:22:26.196Z,100059.00
2018-07-25T12:24:53.766Z,100041.00
2018-07-25T12:27:21.325Z,100056.00
2018-07-25T12:29:48.919Z,100046.00
2018-07-25T12:32:16.481Z,100048.00
2018-07-25T12:34:44.035Z,100049.00
2018-07-25T12:37:11.601Z,100042.00
2018-07-25T12:39:39.175Z,100050.00
2018-07-25T12:42:06.740Z,100033.00
2018-07-25T12:44:34.307Z,100040.00
2018-07-25T12:47:01.890Z,100043.00
2018-07-25T12:49:29.443Z,100031.00
2018-07-25T12:51:57.021Z,100031.00
2018-07-25T12:54:24.603Z,100023.00
2018-07-25T12:56:52.186Z,100041.00
2018-07-25T12:59:19.755Z,100013.00
2018-07-25T13:01:47.316Z,100016.00
2018-07-25T13:04:14.865Z,100027.00
2018-07-25T13:06:42.439Z,100022.00
2018-07-25T13:09:11.179Z,100021.00
2018-07-25T13:11:38.699Z,100015.00
2018-07-25T13:14:06.777Z,100006.00
2018-07-25T13:16:34.381Z,100010.00
2018-07-25T13:19:01.972Z,100014.00
2018-07-25T13:21:33.345Z,100007.00
2018-07-25T13:24:00.913Z,100016.00
2018-07-25T13:26:28.481Z,100006.00
2018-07-25T13:28:56.155Z,100001.00
2018-07-25T13:31:23.893Z,100000.00
2018-07-25T13:33:51.485Z,100001.00
2018-07-25T13:36:19.085Z,99996.00
2018-07-25T13:38:50.061Z,99990.00
2018-07-25T13:41:17.657Z,99988.00
2018-07-25T13:43:45.221Z,99983.00
2018-07-25T13:46:13.006Z,99976.00
2018-07-25T13:48:40.421Z,99975.00
2018-07-25T13:51:08.029Z,99971.00
2018-07-25T13:53:35.657Z,99970.00
2018-07-25T13:56:03.253Z,99963.00
2018-07-25T13:58:30.852Z,99963.00
2018-07-25T14:00:58.439Z,99975.00
2018-07-25T14:03:26.029Z,99963.00
2018-07-25T14:05:53.629Z,99957.00
2018-07-25T14:08:21.181Z,99959.00
2018-07-25T14:10:48.782Z,99954.00
2018-07-25T14:13:16.348Z,99944.00
2018-07-25T14:15:43.914Z,99946.00
2018-07-25T14:18:11.853Z,99960.00
2018-07-25T14:20:39.338Z,99955.00
2018-07-25T14:23:06.920Z,99961.00
2018-07-25T14:25:34.477Z,99952.00
2018-07-25T14:28:02.065Z,99955.00
2018-07-25T14:30:29.697Z,99948.00
2018-07-25T14:32:57.288Z,99963.00
2018-07-25T14:35:24.736Z,99944.00
2018-07-25T14:37:52.383Z,99955.00
2018-07-25T14:40:20.135Z,99948.00
2018-07-25T14:42:47.576Z,99959.00
2018-07-25T14:45:15.126Z,99947.00
2018-07-25T14:47:42.700Z,99939.00
2018-07-25T14:50:10.305Z,99940.00
2018-07-25T14:52:37.873Z,99940.00
2018-07-25T14:55:05.440Z,99933.00
2018-07-25T14:57:33.001Z,99949.00
2018-07-25T15:00:00.564Z,99935.00
2018-07-25T15:02:28.162Z,99937.00
2018-07-25T15:04:55.692Z,99943.00
2018-07-25T15:07:23.278Z,99942.00
2018-07-25T15:09:50.856Z,99939.00
2018-07-25T15:12:23.079Z,99938.00
2018-07-25T15:14:50.633Z,99940.00
2018-07-25T15:17:18.194Z,99927.00
2018-07-25T15:19:45.761Z,99941.00
2018-07-25T15:22:13.325Z,99947.00
2018-07-25T15:24:40.892Z,99942.00
2018-07-25T15:27:08.455Z,99938.00
2018-07-25T15:29:36.079Z,99931.00
2018-07-25T15:32:03.606Z,99935.00
2018-07-25T15:34:31.168Z,99939.00
2018-07-25T15:36:58.772Z,99939.00
2018-07-25T15:39:26.749Z,99940.00
2018-07-25T15:41:55.629Z,99933.00
2018-07-25T15:44:24.315Z,99938.00
2018-07-25T15:46:51.921Z,99956.00
2018-07-25T15:49:19.644Z,99989.00
2018-07-25T15:51:47.217Z,99974.00
2018-07-25T15:54:14.837Z,99971.00
2018-07-25T15:56:42.400Z,99986.00
2018-07-25T15:59:09.973Z,99996.00
2018-07-25T16:01:37.572Z,99985.00
2018-07-25T16:04:05.160Z,99981.00
2018-07-25T16:06:32.736Z,99983.00
2018-07-25T16:09:00.300Z,99977.00
2018-07-25T16:11:27.872Z,99991.00
2018-07-25T16:13:55.462Z,99990.00
2018-07-25T16:16:23.046Z,99984.00
2018-07-25T16:18:50.787Z,100003.00
2018-07-25T16:21:18.950Z,100001.00
2018-07-25T16:23:46.544Z,99995.00
2018-07-25T16:26:14.118Z,99985.00
2018-07-25T16:28:41.698Z,99987.00
2018-07-25T16:31:09.597Z,99985.00
2018-07-25T16:33:37.180Z,99982.00
2018-07-25T16:36:05.089Z,99981.00
2018-07-25T16:38:32.642Z,99977.00
2018-07-25T16:41:00.338Z,99973.00
2018-07-25T16:43:27.910Z,99973.00
2018-07-25T16:45:55.503Z,99972.00
2018-07-25T16:48:23.070Z,99980.00
2018-07-25T16:50:50.644Z,99986.00
2018-07-25T16:53:18.206Z,99985.00
2018-07-25T16:55:45.773Z,99986.00
2018-07-25T16:58:13.350Z,99984.00
2018-07-25T17:00:40.980Z,99978.00
2018-07-25T17:03:08.535Z,99982.00
2018-07-25T17:05:36.133Z,99985.00
2018-07-25T17:08:03.701Z,99982.00
2018-07-25T17:10:31.278Z,99990.00
2018-07-25T17:12:58.836Z,99987.00
2018-07-25T17:15:26.392Z,99981.00
2018-07-25T17:17:54.063Z,99996.00
2018-07-25T17:20:21.667Z,99989.00
2018-07-25T17:22:49.189Z,99989.00
2018-07-25T17:25:16.775Z,99992.00
2018-07-25T17:27:44.366Z,99993.00
2018-07-25T17:30:11.914Z,99994.00
2018-07-25T17:32:39.489Z,99993.00
2018-07-25T17:35:07.494Z,100004.00
2018-07-25T17:37:35.057Z,100002.00
2018-07-25T17:40:02.692Z,100004.00
2018-07-25T17:42:30.481Z,99997.00
2018-07-25T17:44:58.049Z,99999.00
2018-07-25T17:47:25.628Z,100004.00
2018-07-25T17:49:53.216Z,99996.00
2018-07-25T17:52:20.786Z,100002.00
2018-07-25T17:54:48.502Z,100001.00
2018-07-25T17:57:16.166Z,99999.00
2018-07-25T17:59:43.738Z,100001.00
2018-07-25T18:02:11.336Z,100007.00
2018-07-25T18:04:38.895Z,100010.00
2018-07-25T18:07:06.473Z,100002.00
2018-07-25T18:09:34.078Z,100010.00
2018-07-25T18:12:01.861Z,100010.00
2018-07-25T18:14:29.456Z,100023.00
2018-07-25T18:17:04.785Z,100027.00
2018-07-25T18:19:32.457Z,100025.00
2018-07-25T18:22:00.107Z,100034.00
2018-07-25T18:24:27.665Z,100037.00
2018-07-25T18:30:02.227Z,100049.00
2018-07-25T18:32:29.822Z,100044.00
2018-07-25T18:35:16.802Z,100044.00
2018-07-25T18:37:44.376Z,100051.00
2018-07-25T18:40:11.946Z,100061.00
2018-07-25T18:42:39.525Z,100054.00
2018-07-25T18:45:07.095Z,100059.00
2018-07-25T18:47:34.678Z,100075.00
2018-07-25T18:50:02.244Z,100079.00
2018-07-25T18:52:29.820Z,100070.00
2018-07-25T18:54:57.420Z,100066.00
2018-07-25T18:57:24.968Z,100066.00
2018-07-25T18:59:52.513Z,100077.00
2018-07-25T19:02:20.061Z,100070.00
2018-07-25T19:04:47.620Z,100074.00
2018-07-25T19:07:15.206Z,100066.00
2018-07-25T19:09:42.740Z,100077.00
2018-07-25T19:12:10.305Z,100074.00
2018-07-25T19:14:43.505Z,100062.00
2018-07-25T19:17:11.543Z,100070.00
2018-07-25T19:19:39.091Z,100070.00
2018-07-25T19:22:06.662Z,100083.00
2018-07-25T19:24:34.183Z,100076.00
2018-07-25T19:27:01.960Z,100078.00
2018-07-25T19:29:29.512Z,100067.00
2018-07-25T19:32:03.617Z,100070.00
2018-07-25T19:34:39.177Z,100084.00
2018-07-25T19:37:17.066Z,100081.00
2018-07-25T19:39:44.632Z,100080.00
2018-07-25T19:42:20.398Z,100083.00
2018-07-25T19:44:47.969Z,100088.00
2018-07-25T19:47:15.504Z,100079.00
2018-07-25T19:49:43.069Z,100084.00
2018-07-25T19:52:10.619Z,100082.00
2018-07-25T19:54:38.259Z,100089.00
2018-07-25T19:57:05.749Z,100088.00
2018-07-25T19:59:33.289Z,100085.00
2018-07-25T20:02:00.846Z,100087.00
2018-07-25T20:04:41.322Z,100085.00
2018-07-25T20:07:22.077Z,100086.00
2018-07-25T20:09:49.637Z,100092.00
2018-07-25T20:12:41.529Z,100089.00
2018-07-25T20:15:14.918Z,100088.00
2018-07-25T20:17:42.461Z,100093.00
2018-07-25T20:20:10.205Z,100082.00
2018-07-25T20:22:37.780Z,100079.00
2018-07-25T20:25:05.368Z,100085.00
2018-07-25T20:27:33.084Z,100081.00
2018-07-25T20:30:00.648Z,100079.00
2018-07-25T20:35:33.264Z,100086.00
2018-07-25T20:38:04.631Z,100083.00
2018-07-25T20:40:32.227Z,100090.00
2018-07-25T20:42:59.790Z,100083.00
2018-07-25T20:45:27.402Z,100079.00
2018-07-25T20:47:54.958Z,100089.00
2018-07-25T20:50:22.704Z,100084.00
2018-07-25T20:52:50.301Z,100085.00
2018-07-25T20:55:17.848Z,100081.00
2018-07-25T20:57:45.408Z,100083.00
2018-07-25T21:00:13.057Z,100085.00
2018-07-25T21:02:41.536Z,100086.00
2018-07-25T21:05:09.162Z,100094.00
2018-07-25T21:07:36.710Z,100091.00
2018-07-25T21:10:04.305Z,100093.00
2018-07-25T21:12:31.869Z,100091.00
2018-07-25T21:14:59.445Z,100098.00
2018-07-25T21:17:26.999Z,100103.00
2018-07-25T21:19:54.584Z,100101.00
2018-07-25T21:22:22.149Z,100098.00
2018-07-25T21:24:49.688Z,100108.00
2018-07-25T21:27:17.249Z,100109.00
2018-07-25T21:29:44.819Z,100105.00
2018-07-25T21:32:12.376Z,100107.00
2018-07-25T21:34:39.938Z,100117.00
2018-07-25T21:37:07.504Z,100119.00
2018-07-25T21:39:35.067Z,100116.00
2018-07-25T21:42:02.690Z,100113.00
2018-07-25T21:44:30.268Z,100121.00
2018-07-25T21:46:57.832Z,100123.00
2018-07-25T21:49:25.422Z,100125.00
2018-07-25T21:51:52.998Z,100116.00
2018-07-25T21:54:20.561Z,100115.00
2018-07-25T21:56:48.155Z,100123.00
2018-07-25T21:59:15.717Z,100118.00
2018-07-25T22:01:43.268Z,100118.00
2018-07-25T22:04:10.831Z,100128.00
2018-07-25T22:06:38.413Z,100127.00
2018-07-25T22:09:08.650Z,100131.00
2018-07-25T22:11:36.697Z,100129.00
2018-07-25T22:14:04.266Z,100123.00
2018-07-25T22:16:31.824Z,100127.00
2018-07-25T22:18:59.441Z,100127.00
2018-07-25T22:21:27.001Z,100131.00
2018-07-25T22:23:54.558Z,100126.00
2018-07-25T22:26:22.112Z,100133.00
2018-07-25T22:28:49.688Z,100135.00
2018-07-25T22:31:17.256Z,100130.00
2018-07-25T22:33:44.808Z,100134.00
2018-07-25T22:36:12.358Z,100135.00
2018-07-25T22:38:39.909Z,100128.00
2018-07-25T22:41:07.478Z,100133.00
2018-07-25T22:43:35.177Z,100133.00
2018-07-25T22:46:02.841Z,100129.00
2018-07-25T22:48:30.421Z,100124.00
2018-07-25T22:50:57.989Z,100127.00
2018-07-25T22:53:25.560Z,100131.00
2018-07-25T22:55:53.110Z,100130.00
2018-07-25T22:58:20.659Z,100125.00
2018-07-25T23:00:48.198Z,100117.00
2018-07-25T23:03:15.744Z,100120.00
2018-07-25T23:05:43.296Z,100131.00
2018-07-25T23:08:10.841Z,100131.00
2018-07-25T23:10:38.397Z,100139.00
2018-07-25T23:13:05.962Z,100134.00
2018-07-25T23:15:33.521Z,100133.00
2018-07-25T23:18:01.081Z,100142.00
2018-07-25T23:20:28.628Z,100142.00
2018-07-25T23:22:57.276Z,100133.00
2018-07-25T23:25:25.332Z,100132.00
2018-07-25T23:27:54.237Z,100132.00
2018-07-25T23:30:21.777Z,100117.00
2018-07-25T23:32:50.080Z,100120.00
2018-07-25T23:35:18.957Z,100127.00
2018-07-25T23:37:46.827Z,100121.00
2018-07-25T23:40:14.590Z,100115.00
2018-07-25T23:42:42.136Z,100127.00
2018-07-25T23:45:09.683Z,100123.00
2018-07-25T23:47:37.243Z,100126.00
2018-07-25T23:50:04.921Z,100112.00
2018-07-25T23:52:32.517Z,100115.00
2018-07-25T23:55:00.052Z,100121.00
2018-07-25T23:57:27.609Z,100121.00
2018-07-25T23:59:55.223Z,100117.00
